Time;durP1;ratioP1;P1;durP2;ratioP2;P2;SDS_P1;SDS_P2;PMS_P1;PMS_P2;Temp;Humidity;BMP_temperature;BMP_pressure;BME280_temperature;BME280_humidity;BME280_pressure;Samples;Min_cycle;Max_cycle;Signal;HPM_P1;HPM_P2
2020/12/06 00:02:22;;;;;;;18.55;14.40;;;;;;;9.84;63.64;99953.59;2503656;78;25661;-81
2020/12/06 00:06:30;;;;;;;19.07;15.78;;;;;;;9.84;63.66;99977.02;2495231;78;25993;-79
2020/12/06 00:10:17;;;;;;;24.85;17.32;;;;;;;9.83;63.67;99960.53;2510097;78;25863;-82
2020/12/06 00:13:35;;;;;;;17.82;15.05;;;;;;;9.81;63.70;99963.52;2508678;77;25523;-82
2020/12/06 00:16:57;;;;;;;23.67;16.27;;;;;;;9.82;63.69;99963.08;2471469;78;25561;-81
2020/12/06 00:20:18;;;;;;;18.10;15.65;;;;;;;9.81;63.71;99976.53;2473206;79;25773;-82
2020/12/06 00:23:40;;;;;;;19.98;17.25;;;;;;;9.81;63.74;99975.66;2491833;79;25659;-81
2020/12/06 00:27:02;;;;;;;17.40;15.63;;;;;;;9.80;63.75;99964.80;2503121;77;25610;-86
2020/12/06 00:30:26;;;;;;;24.25;18.00;;;;;;;9.79;63.75;99965.23;2539531;77;25627;-82
2020/12/06 00:33:47;;;;;;;19.77;16.52;;;;;;;9.78;63.76;99971.26;2539517;77;25624;-82
2020/12/06 00:37:09;;;;;;;20.65;16.55;;;;;;;9.78;63.76;99971.26;2538144;77;25539;-80
2020/12/06 00:40:30;;;;;;;21.07;15.50;;;;;;;9.78;63.78;99977.77;2539891;77;25903;-82
2020/12/06 00:43:52;;;;;;;17.90;15.50;;;;;;;9.76;63.80;99963.86;2535187;77;25613;-82
2020/12/06 00:47:28;;;;;;;21.65;16.30;;;;;;;9.76;63.82;99977.30;2529545;77;25896;-81
2020/12/06 00:50:59;;;;;;;17.55;15.38;;;;;;;9.75;63.85;99976.40;2523664;77;26133;-82
2020/12/06 00:54:59;;;;;;;19.57;15.68;;;;;;;9.75;63.85;99982.91;2525571;77;25589;-82
2020/12/06 00:59:00;;;;;;;20.32;16.20;;;;;;;9.74;63.86;99981.16;2530055;77;25973;-79
2020/12/06 01:03:02;;;;;;;21.73;16.77;;;;;;;9.73;63.89;99978.11;2402076;79;26683;-81
2020/12/06 01:06:25;;;;;;;20.43;16.57;;;;;;;9.73;63.92;99982.45;2468629;79;25727;-83
2020/12/06 01:09:48;;;;;;;19.77;16.23;;;;;;;9.73;63.96;99987.66;2469400;78;25758;-83
2020/12/06 01:13:09;;;;;;;17.35;15.50;;;;;;;9.72;63.97;99977.67;2445668;80;25948;-81
2020/12/06 01:17:30;;;;;;;21.73;16.37;;;;;;;9.70;63.98;99967.63;2433369;80;25906;-79
2020/12/06 01:20:51;;;;;;;18.75;14.93;;;;;;;9.70;63.97;99968.94;2440753;80;25605;-80
2020/12/06 01:24:13;;;;;;;22.65;17.25;;;;;;;9.70;63.98;99972.41;2438540;80;26205;-81
2020/12/06 01:27:34;;;;;;;18.20;15.38;;;;;;;9.68;64.00;99968.89;2439067;80;25732;-81
2020/12/06 01:30:56;;;;;;;16.93;14.18;;;;;;;9.68;64.02;99970.19;2435117;80;25752;-81
2020/12/06 01:34:17;;;;;;;22.20;16.52;;;;;;;9.67;64.04;99968.88;2442383;80;25633;-81
2020/12/06 01:37:39;;;;;;;19.00;16.00;;;;;;;9.66;64.06;99974.94;2447199;77;25717;-81
2020/12/06 01:41:00;;;;;;;18.25;14.73;;;;;;;9.65;64.08;99974.45;2543406;77;25685;-81
2020/12/06 01:45:02;;;;;;;20.65;16.15;;;;;;;9.65;64.07;99973.16;2541001;76;26057;-79
2020/12/06 01:53:31;;;;;;;18.55;14.93;;;;;;;9.64;64.12;99985.72;2537171;77;25968;-78
2020/12/06 01:57:40;;;;;;;;;;;;;;;;;;;;;
2020/12/06 02:01:25;;;;;;;17.63;14.73;;;;;;;9.61;64.15;99983.92;2416567;80;25864;-78
2020/12/06 02:04:53;;;;;;;16.35;13.68;;;;;;;9.62;64.18;99964.02;2393874;82;26187;-78
2020/12/06 02:08:21;;;;;;;17.73;14.93;;;;;;;9.62;64.17;99973.13;2394616;81;26479;-78
2020/12/06 02:11:54;;;;;;;18.27;16.35;;;;;;;9.63;64.17;99972.27;2390283;82;25734;-80
2020/12/06 02:15:23;;;;;;;17.20;15.10;;;;;;;9.63;64.23;99969.66;2388686;81;25860;-78
2020/12/06 02:18:45;;;;;;;17.98;14.03;;;;;;;9.63;64.25;99973.56;2431167;79;25941;-81
2020/12/06 02:22:06;;;;;;;17.65;13.65;;;;;;;9.62;64.23;99971.39;2484097;78;25685;-80
2020/12/06 02:25:27;;;;;;;16.45;14.75;;;;;;;9.62;64.28;99970.09;2484282;79;25670;-81
2020/12/06 02:28:49;;;;;;;20.97;15.48;;;;;;;9.63;64.24;99967.93;2484625;78;25582;-82
2020/12/06 02:32:10;;;;;;;18.00;15.75;;;;;;;9.63;64.22;99990.48;2483017;79;25641;-81
2020/12/06 02:35:32;;;;;;;16.65;14.47;;;;;;;9.63;64.26;99980.95;2483913;78;25591;-82
2020/12/06 02:38:54;;;;;;;17.17;14.70;;;;;;;9.62;64.29;99982.23;2484556;78;25705;-83
2020/12/06 02:42:15;;;;;;;18.10;14.90;;;;;;;9.61;64.27;99970.91;2484450;79;25570;-82
2020/12/06 02:45:43;;;;;;;18.30;15.38;;;;;;;9.62;64.29;99974.00;2484578;78;25683;-83
2020/12/06 02:49:06;;;;;;;15.55;13.95;;;;;;;9.61;64.27;99983.92;2483377;79;25677;-80
2020/12/06 02:52:27;;;;;;;17.55;15.78;;;;;;;9.61;64.29;99964.84;2484658;79;25603;-78
2020/12/06 02:55:48;;;;;;;21.07;15.18;;;;;;;9.60;64.30;99977.41;2484483;78;25917;-80
2020/12/06 02:59:10;;;;;;;19.57;14.85;;;;;;;9.60;64.31;99970.89;2484556;79;25725;-81
2020/12/06 03:02:32;;;;;;;21.42;15.10;;;;;;;9.59;64.31;99989.54;2484598;78;25530;-81
2020/12/06 03:05:53;;;;;;;18.23;13.93;;;;;;;9.60;64.31;99978.70;2484538;79;25617;-82
2020/12/06 03:09:14;;;;;;;19.85;16.42;;;;;;;9.59;64.32;99980.86;2486113;78;25507;-79
2020/12/06 03:12:36;;;;;;;18.55;14.35;;;;;;;9.58;64.35;99968.24;2491710;79;25625;-81
2020/12/06 03:15:58;;;;;;;16.25;14.23;;;;;;;9.58;64.33;99975.17;2491960;79;25353;-79
2020/12/06 03:19:20;;;;;;;18.62;14.95;;;;;;;9.58;64.34;99973.88;2491969;79;25669;-81
2020/12/06 03:23:03;;;;;;;18.42;15.65;;;;;;;9.57;64.35;99974.30;2490356;79;25641;-79
2020/12/06 03:26:59;;;;;;;17.75;15.58;;;;;;;9.57;64.36;99982.54;2477531;79;25629;-79
2020/12/06 03:30:31;;;;;;;20.85;15.58;;;;;;;9.56;64.37;99986.88;2476809;79;25701;-79
2020/12/06 03:34:01;;;;;;;21.73;16.60;;;;;;;9.57;64.41;99991.65;2475892;79;25817;-78
2020/12/06 03:38:03;;;;;;;22.37;15.32;;;;;;;9.55;64.39;99985.52;2464537;79;25757;-81
2020/12/06 03:41:39;;;;;;;16.57;14.75;;;;;;;9.55;64.41;99992.02;2476228;79;25743;-83
2020/12/06 03:45:00;;;;;;;18.60;14.85;;;;;;;9.56;64.40;99988.60;2487290;79;25680;-81
2020/12/06 03:48:22;;;;;;;17.17;14.70;;;;;;;9.55;64.40;100018.05;2490874;79;25949;-82
2020/12/06 03:51:43;;;;;;;18.10;15.30;;;;;;;9.55;64.39;100012.84;2491467;79;25586;-82
2020/12/06 03:55:29;;;;;;;20.57;15.03;;;;;;;9.56;64.42;100006.81;2484310;79;26231;-79
2020/12/06 03:58:50;;;;;;;16.95;15.13;;;;;;;9.55;64.39;100007.24;2344617;83;25784;-82
2020/12/06 04:02:13;;;;;;;19.30;15.18;;;;;;;9.53;64.39;100009.34;2352288;83;25696;-82
2020/12/06 04:05:56;;;;;;;17.10;15.20;;;;;;;9.54;64.36;100003.28;2344700;84;25776;-82
2020/12/06 04:09:28;;;;;;;16.97;13.88;;;;;;;9.54;64.37;99998.08;2338869;83;25704;-82
2020/12/06 04:13:03;;;;;;;18.25;15.70;;;;;;;9.54;64.36;100022.80;2332099;84;26225;-82
2020/12/06 04:16:35;;;;;;;16.42;14.47;;;;;;;9.54;64.37;100026.28;2358775;83;25791;-79
2020/12/06 04:30:34;;;;;;;16.20;13.63;;;;;;;9.52;64.45;100019.28;2533841;77;25516;-82
2020/12/06 04:33:56;;;;;;;17.07;13.90;;;;;;;9.45;64.35;100023.50;2563260;77;25583;-78
2020/12/06 04:37:23;;;;;;;21.20;15.20;;;;;;;9.45;64.34;100017.87;2563884;77;25579;-79
2020/12/06 04:40:45;;;;;;;17.48;14.65;;;;;;;9.47;64.32;100013.98;2563907;77;25611;-81
2020/12/06 04:44:10;;;;;;;16.50;14.47;;;;;;;9.47;64.36;100023.09;2564136;77;25685;-81
2020/12/06 04:47:40;;;;;;;14.30;12.80;;;;;;;9.43;64.30;100009.14;2564151;77;25646;-83
2020/12/06 04:51:05;;;;;;;15.53;12.98;;;;;;;9.44;64.28;100039.50;2563851;77;25725;-82
2020/12/06 04:54:34;;;;;;;15.80;13.35;;;;;;;9.43;64.25;100016.94;2564036;75;25604;-82
2020/12/06 04:58:01;;;;;;;15.90;14.10;;;;;;;9.42;64.24;100019.09;2563279;75;25863;-83
2020/12/06 05:01:25;;;;;;;17.95;13.85;;;;;;;9.42;64.24;100033.83;2561676;75;25576;-81
2020/12/06 05:19:35;;;;;;;13.97;12.10;;;;;;;9.39;64.29;100042.44;2512298;77;25635;-80
2020/12/06 05:23:01;;;;;;;16.42;13.43;;;;;;;9.35;64.21;100041.92;2507811;78;25693;-80
2020/12/06 05:26:37;;;;;;;14.93;13.40;;;;;;;9.34;64.18;100045.34;2508332;78;25684;-78
2020/12/06 05:29:58;;;;;;;14.00;12.63;;;;;;;9.34;64.16;100049.67;2479940;78;25665;-78
2020/12/06 05:33:19;;;;;;;15.48;13.35;;;;;;;9.35;64.16;100056.66;2473593;79;25578;-81
2020/12/06 05:36:43;;;;;;;14.15;12.70;;;;;;;9.35;64.13;100064.03;2473534;80;25618;-81
2020/12/06 05:40:56;;;;;;;13.53;12.20;;;;;;;9.42;64.18;100076.34;2573181;76;25195;-78
2020/12/06 05:44:21;;;;;;;14.18;12.68;;;;;;;9.38;64.13;100085.31;2441950;79;26268;-79
2020/12/06 05:47:44;;;;;;;13.32;12.03;;;;;;;9.36;64.12;100082.69;2525007;77;25653;-82
2020/12/06 05:51:10;;;;;;;12.30;11.22;;;;;;;9.36;64.11;100087.02;2534664;77;25674;-80
2020/12/06 05:54:31;;;;;;;12.88;11.57;;;;;;;9.36;64.10;100081.39;2440395;80;25341;-79
2020/12/06 05:57:52;;;;;;;12.73;11.48;;;;;;;9.35;64.06;100082.25;2534566;77;25553;-81
2020/12/06 06:01:32;;;;;;;12.80;11.68;;;;;;;9.35;64.03;100093.08;2406615;80;25665;-82
2020/12/06 06:05:03;;;;;;;;;;;;;;;9.35;64.02;100100.88;2349745;83;26062;-79
2020/12/06 06:08:26;;;;;;;13.93;11.38;;;;;;;9.33;64.08;100098.66;2387955;80;25828;-81
2020/12/06 06:11:58;;;;;;;12.15;11.05;;;;;;;9.32;64.02;100115.11;2369814;82;25781;-82
2020/12/06 06:15:21;;;;;;;10.93;9.88;;;;;;;9.32;63.97;100116.41;2367728;82;25630;-81
2020/12/06 06:18:46;;;;;;;11.48;10.38;;;;;;;9.31;63.96;100111.61;2368049;82;25712;-80
2020/12/06 06:22:09;;;;;;;11.45;10.55;;;;;;;9.31;63.95;100122.01;2361981;83;25617;-78
2020/12/06 06:25:31;;;;;;;12.47;11.05;;;;;;;9.28;63.90;100110.66;2356431;83;25785;-79
2020/12/06 06:28:53;;;;;;;12.68;11.08;;;;;;;9.28;63.88;100117.16;2365913;83;25631;-81
2020/12/06 06:32:20;;;;;;;11.30;10.20;;;;;;;9.27;63.84;100117.58;2411923;80;25785;-83
2020/12/06 06:35:55;;;;;;;11.75;10.75;;;;;;;9.27;63.82;100133.19;2406668;80;25917;-82
2020/12/06 06:39:23;;;;;;;10.80;9.83;;;;;;;9.26;63.79;100132.74;2368658;81;25606;-78
2020/12/06 06:42:46;;;;;;;10.82;9.78;;;;;;;9.23;63.75;100132.66;2403124;81;25670;-82
2020/12/06 06:46:13;;;;;;;11.35;10.25;;;;;;;9.23;63.73;100140.47;2402008;80;25834;-81
2020/12/06 06:49:59;;;;;;;11.53;9.75;;;;;;;9.21;63.69;100132.64;2377661;81;25404;-80
2020/12/06 06:53:28;;;;;;;11.20;10.13;;;;;;;9.21;63.65;100129.13;2404164;81;25588;-79
2020/12/06 06:56:52;;;;;;;9.68;8.90;;;;;;;9.18;63.61;100126.48;2408731;81;25654;-81
2020/12/06 07:00:31;;;;;;;10.65;9.85;;;;;;;9.19;63.59;100138.20;2400731;81;25867;-79
2020/12/06 07:03:58;;;;;;;9.53;8.63;;;;;;;9.19;63.55;100138.20;2404468;80;25359;-81
2020/12/06 07:07:58;;;;;;;9.68;8.73;;;;;;;9.16;63.50;100131.63;2401077;81;25705;-78
2020/12/06 07:11:23;;;;;;;9.23;8.35;;;;;;;9.18;63.49;100142.09;2404505;82;25621;-81
2020/12/06 07:14:46;;;;;;;9.13;8.30;;;;;;;9.18;63.46;100137.77;2395567;81;26084;-82
2020/12/06 07:18:08;;;;;;;9.15;8.35;;;;;;;9.18;63.42;100145.98;2404452;82;25631;-82
2020/12/06 07:21:58;;;;;;;10.40;8.45;;;;;;;9.19;63.40;100152.94;2404981;82;25492;-81
2020/12/06 07:25:20;;;;;;;9.80;8.93;;;;;;;9.18;63.37;100154.66;2406917;82;25670;-78
2020/12/06 07:28:42;;;;;;;9.08;8.18;;;;;;;9.18;63.33;100144.69;2414164;78;25623;-79
2020/12/06 07:32:04;;;;;;;8.75;8.05;;;;;;;9.18;63.33;100145.98;2359511;81;26200;-81
2020/12/06 07:35:27;;;;;;;8.78;8.03;;;;;;;9.18;63.28;100152.06;2412421;80;25748;-78
2020/12/06 07:38:49;;;;;;;13.85;8.53;;;;;;;9.19;63.28;100153.81;2400713;82;26171;-82
2020/12/06 07:42:35;;;;;;;9.08;8.18;;;;;;;9.19;63.24;100160.31;2405021;81;25638;-78
2020/12/06 07:46:23;;;;;;;9.00;8.15;;;;;;;9.20;63.21;100163.80;2370416;81;25899;-78
2020/12/06 07:49:51;;;;;;;9.23;8.30;;;;;;;9.20;63.17;100152.09;2372893;82;25672;-81
2020/12/06 07:53:13;;;;;;;8.93;7.57;;;;;;;9.20;63.14;100162.06;2402491;79;25519;-81
2020/12/06 07:56:35;;;;;;;8.75;8.05;;;;;;;9.21;63.12;100156.05;2403856;82;25820;-82
2020/12/06 08:00:01;;;;;;;8.23;7.53;;;;;;;9.21;63.09;100156.05;2383871;81;25694;-82
2020/12/06 08:03:25;;;;;;;8.03;7.42;;;;;;;9.22;63.02;100159.09;2379675;81;25361;-83
2020/12/06 08:07:00;;;;;;;8.65;7.85;;;;;;;9.23;63.00;100159.55;2406519;81;25811;-79
2020/12/06 08:10:24;;;;;;;8.43;7.62;;;;;;;9.26;62.94;100146.17;2406670;80;25754;-78
2020/12/06 08:14:08;;;;;;;8.05;7.37;;;;;;;9.27;62.89;100151.82;2364849;82;26031;-81
2020/12/06 08:18:23;;;;;;;;;;;;;;;;;;;;;
2020/12/06 08:21:51;;;;;;;7.20;6.65;;;;;;;9.27;62.78;100144.89;2353811;81;26251;-82
2020/12/06 08:40:09;;;;;;;6.97;6.47;;;;;;;9.35;62.50;100132.98;2354723;77;25499;-81
2020/12/06 08:44:05;;;;;;;7.83;7.30;;;;;;;9.31;62.50;100150.62;2272373;84;25801;-81
2020/12/06 08:48:02;;;;;;;7.30;6.72;;;;;;;9.33;62.46;100150.68;2292786;84;25800;-80
2020/12/06 08:51:36;;;;;;;7.12;6.53;;;;;;;9.35;62.38;100158.11;2289004;84;25741;-80
2020/12/06 08:55:43;;;;;;;;;;;;;;;;;;;;;
2020/12/06 09:10:46;;;;;;;6.97;6.37;;;;;;;9.46;62.10;100137.13;2495772;73;25657;-82
2020/12/06 09:19:01;;;;;;;7.08;6.17;;;;;;;9.43;62.08;100131.42;2404103;79;25908;-79
2020/12/06 09:22:25;;;;;;;6.90;6.30;;;;;;;9.49;62.04;100122.02;2421543;79;26303;-81
2020/12/06 09:25:50;;;;;;;7.15;6.55;;;;;;;9.54;61.99;100125.59;2412460;80;25757;-83
2020/12/06 09:29:26;;;;;;;7.50;6.50;;;;;;;9.57;61.93;100123.07;2422715;77;25989;-80
2020/12/06 09:32:56;;;;;;;6.33;5.83;;;;;;;9.62;61.89;100131.45;2414869;79;26001;-79
2020/12/06 09:36:19;;;;;;;6.65;6.15;;;;;;;9.67;61.80;100125.91;2414014;80;26017;-82
2020/12/06 09:40:00;;;;;;;6.95;6.45;;;;;;;9.72;61.70;100126.04;2426141;80;25717;-82
2020/12/06 09:44:05;;;;;;;6.83;6.22;;;;;;;9.74;61.65;100137.78;2424223;79;25731;-79
2020/12/06 09:47:55;;;;;;;6.03;5.55;;;;;;;9.75;61.54;100131.28;2408804;79;26056;-80
2020/12/06 09:51:43;;;;;;;6.87;6.28;;;;;;;9.78;61.47;100131.78;2416121;79;26004;-82
2020/12/06 09:59:58;;;;;;;6.03;5.53;;;;;;;9.84;61.30;100129.33;2385852;80;26418;-79
2020/12/06 10:04:00;;;;;;;6.73;6.23;;;;;;;9.91;61.15;100139.03;2464765;78;27870;-80
2020/12/06 10:07:21;;;;;;;5.72;5.22;;;;;;;9.86;61.15;100124.63;2344013;82;25738;-81
2020/12/06 10:10:42;;;;;;;6.30;5.70;;;;;;;9.87;61.05;100113.35;2409101;80;25889;-80
2020/12/06 10:14:05;;;;;;;6.47;5.87;;;;;;;9.86;60.99;100111.60;2422704;81;25753;-81
2020/12/06 10:17:26;;;;;;;6.35;5.75;;;;;;;9.87;60.91;100104.23;2339357;83;25802;-81
2020/12/06 10:20:48;;;;;;;6.33;5.72;;;;;;;9.87;60.83;100101.63;2327525;83;25765;-81
2020/12/06 10:24:10;;;;;;;6.33;5.83;;;;;;;9.86;60.80;100105.09;2344329;83;25913;-81
2020/12/06 10:27:32;;;;;;;7.15;5.72;;;;;;;9.86;60.72;100109.42;2381258;81;25853;-80
2020/12/06 10:31:05;;;;;;;;;;;;;;;;;;;;;
2020/12/06 10:34:27;;;;;;;5.60;5.20;;;;;;;9.86;60.66;100111.60;2386560;81;25747;-82
2020/12/06 10:37:49;;;;;;;6.22;5.65;;;;;;;9.83;60.62;100116.73;2396659;81;25845;-82
2020/12/06 10:41:11;;;;;;;5.85;5.35;;;;;;;9.83;60.58;100109.36;2402523;80;25759;-81
2020/12/06 10:44:32;;;;;;;6.10;5.50;;;;;;;9.81;60.58;100103.22;2393180;80;26571;-81
2020/12/06 10:53:28;;;;;;;6.17;5.67;;;;;;;9.78;60.54;100114.44;2371693;80;26540;-82
2020/12/06 10:56:49;;;;;;;6.28;5.72;;;;;;;9.77;60.51;100105.31;2386273;81;26353;-83
2020/12/06 11:05:01;;;;;;;6.33;5.83;;;;;;;9.75;60.45;100109.16;2368213;81;25991;-82
2020/12/06 11:08:24;;;;;;;6.03;5.53;;;;;;;9.72;60.41;100106.91;2354087;80;25683;-83
2020/12/06 11:21:04;;;;;;;6.35;5.53;;;;;;;9.67;60.34;100106.39;2417446;80;25752;-84
2020/12/06 11:24:26;;;;;;;6.55;5.95;;;;;;;9.65;60.30;100093.78;2423640;80;25864;-85
2020/12/06 11:27:47;;;;;;;6.08;5.47;;;;;;;9.66;60.27;100108.55;2419052;80;25762;-87
2020/12/06 11:31:09;;;;;;;6.58;6.08;;;;;;;9.66;60.24;100095.53;2416917;80;25862;-82
2020/12/06 11:34:31;;;;;;;6.65;6.03;;;;;;;9.65;60.19;100104.20;2427717;80;25694;-84
2020/12/06 11:37:59;;;;;;;7.80;7.05;;;;;;;9.67;60.14;100088.17;2391170;80;25896;-81
2020/12/06 11:41:21;;;;;;;6.85;6.33;;;;;;;9.67;60.12;100114.20;2381051;81;25651;-84
2020/12/06 11:45:04;;;;;;;7.33;6.65;;;;;;;9.68;60.03;100096.86;2379623;81;25679;-85
2020/12/06 11:48:25;;;;;;;7.78;7.03;;;;;;;9.68;59.97;100092.52;2385345;81;26048;-86
2020/12/06 11:51:47;;;;;;;6.62;6.12;;;;;;;9.68;59.90;100091.22;2387634;80;25726;-86
2020/12/06 11:55:08;;;;;;;8.78;7.40;;;;;;;9.68;59.86;100091.65;2390947;80;25698;-87
2020/12/06 11:58:29;;;;;;;7.08;6.37;;;;;;;9.65;59.85;100071.66;2397868;80;25675;-82
2020/12/06 12:01:53;;;;;;;7.85;7.05;;;;;;;9.64;59.81;100084.63;2400992;81;25707;-88
2020/12/06 12:05:20;;;;;;;7.28;6.67;;;;;;;9.62;59.76;100071.59;2333132;84;25696;-87
2020/12/06 12:08:46;;;;;;;7.45;6.60;;;;;;;9.63;59.77;100069.86;2429581;80;25858;-89
2020/12/06 12:12:07;;;;;;;7.47;6.90;;;;;;;9.61;59.75;100058.09;2400935;80;25721;-90
2020/12/06 12:15:28;;;;;;;6.25;5.65;;;;;;;9.62;59.72;100051.20;2346492;83;25929;-87
2020/12/06 12:18:51;;;;;;;7.25;6.72;;;;;;;9.61;59.73;100058.53;2424744;81;25784;-89
2020/12/06 12:22:13;;;;;;;7.60;6.90;;;;;;;9.62;59.71;100069.41;2434372;80;25753;-91
2020/12/06 12:25:34;;;;;;;8.15;7.45;;;;;;;9.61;59.68;100060.70;2431035;80;25720;-86
2020/12/06 12:28:57;;;;;;;7.60;6.92;;;;;;;9.60;59.69;100054.17;2421641;81;25947;-87
2020/12/06 12:32:18;;;;;;;8.60;6.95;;;;;;;9.59;59.69;100065.02;2407989;81;25820;-86
2020/12/06 12:35:40;;;;;;;7.80;7.00;;;;;;;9.59;59.69;100064.14;2426871;80;25678;-84
2020/12/06 12:39:01;;;;;;;8.23;7.40;;;;;;;9.57;59.67;100054.98;2347839;83;25791;-85
2020/12/06 12:42:23;;;;;;;7.97;7.28;;;;;;;9.57;59.66;100063.21;2432547;80;25987;-87
2020/12/06 12:45:48;;;;;;;9.03;8.18;;;;;;;9.55;59.67;100054.48;2407276;81;25731;-89
2020/12/06 12:49:10;;;;;;;8.43;7.22;;;;;;;9.54;59.62;100054.91;2338543;83;25735;-93
2020/12/06 12:52:31;;;;;;;8.83;8.03;;;;;;;9.53;59.62;100060.97;2394120;81;25715;-87
2020/12/06 12:55:56;;;;;;;8.60;7.80;;;;;;;9.51;59.58;100048.33;2425650;80;25408;-90
2020/12/06 12:59:17;;;;;;;9.10;7.83;;;;;;;9.51;59.50;100048.76;2325368;83;25895;-87
2020/12/06 13:02:39;;;;;;;9.48;8.58;;;;;;;9.49;59.48;100055.24;2356121;83;25739;-86
2020/12/06 13:06:00;;;;;;;8.25;7.45;;;;;;;9.48;59.43;100048.69;2425776;81;25678;-88
2020/12/06 13:09:21;;;;;;;8.30;7.42;;;;;;;9.43;59.40;100035.16;2429950;80;25932;-88
2020/12/06 13:12:43;;;;;;;8.60;7.78;;;;;;;9.42;59.38;100052.05;2330433;83;25802;-88
2020/12/06 13:16:04;;;;;;;8.45;7.75;;;;;;;9.39;59.38;100051.55;2423167;81;25624;-88
2020/12/06 13:19:26;;;;;;;8.45;7.75;;;;;;;9.39;59.33;100057.18;2426163;80;25625;-86
2020/12/06 13:22:47;;;;;;;8.40;7.60;;;;;;;9.35;59.31;100055.36;2403035;80;25899;-86
2020/12/06 13:26:09;;;;;;;8.60;7.90;;;;;;;9.33;59.32;100050.53;2436467;80;25834;-87
2020/12/06 13:29:30;;;;;;;8.83;8.03;;;;;;;9.31;59.32;100052.20;2331643;83;25739;-86
2020/12/06 13:32:52;;;;;;;8.65;7.85;;;;;;;9.27;59.32;100047.34;2414245;80;25615;-87
2020/12/06 13:36:19;;;;;;;10.08;7.08;;;;;;;9.23;59.32;100045.10;2420201;80;25413;-85
2020/12/06 13:39:42;;;;;;;9.70;7.83;;;;;;;9.22;59.36;100050.28;2310951;83;25343;-87
2020/12/06 13:43:04;;;;;;;11.30;8.85;;;;;;;9.18;59.35;100055.83;2398464;80;25842;-87
2020/12/06 13:46:25;;;;;;;9.58;8.68;;;;;;;9.16;59.36;100047.10;2426792;81;25715;-83
2020/12/06 13:49:47;;;;;;;8.45;7.67;;;;;;;9.14;59.41;100063.50;2413354;81;25680;-89
2020/12/06 13:53:08;;;;;;;8.55;7.67;;;;;;;9.12;59.44;100067.38;2328739;83;25520;-86
2020/12/06 13:56:30;;;;;;;9.05;7.58;;;;;;;9.08;59.43;100065.56;2378589;82;25590;-89
2020/12/06 13:59:51;;;;;;;11.95;9.28;;;;;;;9.05;59.43;100064.61;2428238;81;26261;-88
2020/12/06 14:03:13;;;;;;;8.75;7.97;;;;;;;9.02;59.44;100077.09;2414626;80;25401;-83
2020/12/06 14:06:35;;;;;;;8.48;7.67;;;;;;;8.98;59.43;100085.67;2422433;80;25989;-87
2020/12/06 14:09:57;;;;;;;10.40;8.50;;;;;;;8.94;59.44;100065.22;2396393;80;25723;-86
2020/12/06 14:13:20;;;;;;;9.15;8.28;;;;;;;8.89;59.43;100059.00;2438451;80;25499;-86
2020/12/06 14:16:41;;;;;;;8.73;7.97;;;;;;;8.87;59.48;100064.58;2419761;80;25623;-86
2020/12/06 14:20:03;;;;;;;8.58;7.75;;;;;;;8.83;59.50;100069.67;2407904;80;25595;-88
2020/12/06 14:23:26;;;;;;;8.90;8.10;;;;;;;8.79;59.52;100075.21;2422308;80;25643;-88
2020/12/06 14:26:52;;;;;;;8.05;7.35;;;;;;;8.76;59.51;100080.33;2418668;80;25803;-87
2020/12/06 14:30:15;;;;;;;8.78;7.78;;;;;;;8.73;59.52;100081.12;2346343;83;25805;-85
2020/12/06 14:33:37;;;;;;;9.15;8.25;;;;;;;8.70;59.54;100066.74;2413362;80;25658;-88
2020/12/06 14:36:58;;;;;;;10.72;7.92;;;;;;;8.67;59.56;100064.48;2343513;83;26158;-87
2020/12/06 14:40:20;;;;;;;8.75;7.87;;;;;;;8.65;59.58;100074.86;2437598;81;25890;-88
2020/12/06 14:43:42;;;;;;;8.98;8.03;;;;;;;8.61;59.57;100070.85;2336138;83;25417;-88
2020/12/06 14:47:03;;;;;;;11.25;9.18;;;;;;;8.58;59.57;100078.14;2405813;81;25586;-87
2020/12/06 14:50:25;;;;;;;9.58;8.38;;;;;;;8.56;59.62;100082.83;2401377;80;25665;-84
2020/12/06 14:53:48;;;;;;;8.53;7.35;;;;;;;8.53;59.66;100079.72;2420142;80;26503;-86
2020/12/06 14:57:09;;;;;;;8.60;7.80;;;;;;;8.51;59.67;100082.29;2341319;84;25727;-89
2020/12/06 15:00:31;;;;;;;8.60;7.45;;;;;;;8.50;59.70;100078.33;2424897;80;25716;-84
2020/12/06 15:03:52;;;;;;;8.65;7.85;;;;;;;8.48;59.74;100072.23;2319484;83;25596;-85
2020/12/06 15:07:14;;;;;;;10.78;7.58;;;;;;;8.47;59.77;100071.75;2416306;80;25793;-85
2020/12/06 15:10:36;;;;;;;8.58;7.80;;;;;;;8.44;59.79;100081.66;2408167;80;25830;-82
2020/12/06 15:13:58;;;;;;;8.35;7.22;;;;;;;8.42;59.78;100089.81;2412447;80;25604;-84
2020/12/06 15:17:19;;;;;;;8.98;8.13;;;;;;;8.40;59.80;100089.31;2428324;80;25696;-83
2020/12/06 15:20:45;;;;;;;8.63;7.72;;;;;;;8.38;59.82;100106.59;2329562;83;25962;-88
2020/12/06 15:24:07;;;;;;;8.00;7.17;;;;;;;8.36;59.82;100111.69;2431392;81;25399;-85
2020/12/06 15:27:28;;;;;;;10.48;7.90;;;;;;;8.34;59.85;100106.89;2346872;83;25507;-88
2020/12/06 15:30:51;;;;;;;7.35;6.65;;;;;;;8.33;59.88;100104.23;2428864;80;25901;-80
2020/12/06 15:34:17;;;;;;;9.48;7.47;;;;;;;8.32;59.87;100101.19;2340662;84;25690;-86
2020/12/06 15:37:38;;;;;;;8.05;7.33;;;;;;;8.29;59.90;100116.25;2436531;80;25708;-86
2020/12/06 15:41:00;;;;;;;8.78;7.60;;;;;;;8.27;59.89;100106.26;2347529;84;25563;-88
2020/12/06 15:44:21;;;;;;;9.65;8.30;;;;;;;8.26;59.87;100100.58;2358737;83;25675;-86
2020/12/06 15:47:43;;;;;;;8.08;7.33;;;;;;;8.23;59.91;100110.48;2347479;84;25204;-88
2020/12/06 15:51:10;;;;;;;9.10;7.75;;;;;;;8.22;59.91;100096.14;2437001;81;25741;-86
2020/12/06 15:54:32;;;;;;;9.60;8.55;;;;;;;8.20;59.93;100090.92;2347493;83;25463;-87
2020/12/06 15:57:54;;;;;;;7.78;7.08;;;;;;;8.18;59.92;100085.22;2438242;81;25700;-87
2020/12/06 16:01:16;;;;;;;10.38;8.58;;;;;;;8.18;59.95;100082.62;2347379;84;25764;-85
2020/12/06 16:04:37;;;;;;;12.10;8.88;;;;;;;8.16;59.95;100080.38;2439029;80;25215;-87
2020/12/06 16:07:59;;;;;;;9.68;8.63;;;;;;;8.16;59.98;100090.77;2347488;83;25756;-88
2020/12/06 16:11:23;;;;;;;10.00;8.60;;;;;;;8.14;59.99;100101.55;2438802;81;25609;-86
2020/12/06 16:14:47;;;;;;;9.35;8.60;;;;;;;8.13;60.00;100099.34;2345873;84;25748;-82
2020/12/06 16:18:08;;;;;;;9.75;8.75;;;;;;;8.12;59.99;100085.03;2438759;81;25830;-87
2020/12/06 16:21:30;;;;;;;11.15;9.75;;;;;;;8.10;60.01;100089.29;2347391;83;25632;-86
2020/12/06 16:24:51;;;;;;;11.75;10.15;;;;;;;8.09;60.03;100079.75;2438141;81;25729;-88
2020/12/06 16:28:13;;;;;;;11.33;10.03;;;;;;;8.08;60.06;100089.69;2347163;83;25379;-85
2020/12/06 16:31:38;;;;;;;11.15;9.78;;;;;;;8.08;60.05;100087.09;2437108;81;25563;-85
2020/12/06 16:34:59;;;;;;;9.85;8.95;;;;;;;8.07;60.10;100093.12;2347383;84;25669;-85
2020/12/06 16:38:23;;;;;;;11.57;10.35;;;;;;;8.05;60.10;100092.64;2347380;84;25700;-86
2020/12/06 16:41:44;;;;;;;13.18;11.00;;;;;;;8.04;60.09;100080.93;2439028;80;25766;-86
2020/12/06 16:45:09;;;;;;;13.38;10.60;;;;;;;8.04;60.12;100087.00;2342229;83;25797;-88
2020/12/06 16:48:31;;;;;;;13.98;11.35;;;;;;;8.02;60.13;100082.59;2432404;80;25702;-85
2020/12/06 16:51:53;;;;;;;13.15;10.95;;;;;;;8.01;60.13;100078.23;2438816;81;25616;-87
2020/12/06 16:55:15;;;;;;;17.82;11.10;;;;;;;8.02;60.16;100085.19;2344464;83;25850;-83
2020/12/06 16:58:37;;;;;;;13.53;10.58;;;;;;;8.00;60.16;100084.28;2345948;83;25581;-85
2020/12/06 17:01:58;;;;;;;12.00;10.75;;;;;;;8.00;60.16;100079.09;2437959;81;25696;-86
2020/12/06 17:05:20;;;;;;;13.15;11.22;;;;;;;7.97;60.16;100063.00;2347334;84;25657;-88
2020/12/06 17:08:44;;;;;;;14.55;11.50;;;;;;;7.97;60.16;100096.74;2437513;80;25664;-87
2020/12/06 17:12:05;;;;;;;13.93;11.33;;;;;;;7.96;60.15;100085.88;2344472;83;25566;-86
2020/12/06 17:15:27;;;;;;;11.63;10.53;;;;;;;7.95;60.17;100081.53;2436695;81;25413;-88
2020/12/06 17:18:51;;;;;;;13.72;11.85;;;;;;;7.95;60.15;100070.27;2343882;84;25563;-85
2020/12/06 17:22:13;;;;;;;12.40;11.15;;;;;;;7.94;60.14;100074.59;2357083;83;25750;-83
2020/12/06 17:25:34;;;;;;;12.13;10.88;;;;;;;7.94;60.16;100071.99;2387833;82;25703;-87
2020/12/06 17:29:12;;;;;;;12.23;10.45;;;;;;;7.93;60.13;100062.45;2346775;83;25612;-80
2020/12/06 17:32:33;;;;;;;12.88;11.43;;;;;;;7.93;60.15;100061.16;2438719;80;25799;-87
2020/12/06 17:35:55;;;;;;;12.53;10.95;;;;;;;7.93;60.14;100051.16;2314802;83;25665;-84
2020/12/06 17:39:16;;;;;;;12.35;10.68;;;;;;;7.92;60.14;100042.92;2339605;83;25670;-86